Terminal Aerodrome Forecast
Issued by NWS Austin/San Antonio, TX

Current Version | Previous Version | Text Only | Print | Product List | Glossary Off
Versions: 1 2 3 4 5 6 7 8 9 10 11 12 13 14 15 16 17 18

000
FTUS44 KEWX 262320
TAFDRT
TAF
KDRT 262320Z 2700/2724 33016KT P6SM SCT250
     FM270200 36005KT P6SM SKC
     FM271600 14005KT P6SM SKC=

USA.gov is the U.S. government's official web portal to all federal, state and local government web resources and services.